Time;durP1;ratioP1;P1;durP2;ratioP2;P2;SDS_P1;SDS_P2;PMS_P1;PMS_P2;Temp;Humidity;BMP_temperature;BMP_pressure;BME280_temperature;BME280_humidity;BME280_pressure;Samples;Min_cycle;Max_cycle;Signal;HPM_P1;HPM_P2
2021/05/16 10:13:15;;;;;;;69.00;66.05;;;;;;;;;;5090891;27;20519;-70
2021/05/16 10:15:42;;;;;;;98.40;94.07;;;;;;;;;;5090879;28;20168;-68
2021/05/16 10:18:09;;;;;;;113.07;108.07;;;;;;;;;;5090860;28;20178;-71
2021/05/16 10:20:37;;;;;;;152.27;145.15;;;;;;;;;;5090789;28;20209;-70
2021/05/16 10:23:05;;;;;;;113.53;108.45;;;;;;;;;;5090710;28;20168;-71
2021/05/16 10:25:45;;;;;;;183.45;174.90;;;;;;;;;;5090647;28;20652;-72
2021/05/16 10:28:12;;;;;;;238.32;227.25;;;;;;;;;;5090526;28;20168;-72
2021/05/16 10:47:51;;;;;;;51.03;48.92;;;;;;;;;;5090921;27;20941;-71
2021/05/16 10:50:21;;;;;;;54.15;51.85;;;;;;;;;;5090828;28;20171;-71
2021/05/16 10:52:56;;;;;;;54.22;52.03;;;;;;;;;;5090909;28;20523;-71
2021/05/16 10:55:30;;;;;;;61.92;59.30;;;;;;;;;;5090731;28;20582;-71
2021/05/16 10:57:57;;;;;;;65.57;62.80;;;;;;;;;;5090657;28;20167;-67
2021/05/16 11:00:27;;;;;;;67.65;64.78;;;;;;;;;;5090736;28;20644;-67
2021/05/16 11:03:12;;;;;;;71.93;68.85;;;;;;;;;;5090830;28;20175;-67
2021/05/16 11:08:11;;;;;;;80.18;76.72;;;;;;;;;;5090515;28;20635;-68
2021/05/16 11:10:38;;;;;;;101.50;96.97;;;;;;;;;;5090497;28;20182;-68
2021/05/16 11:13:14;;;;;;;100.07;95.30;;;;;;;;;;5090423;28;20253;-68
2021/05/16 11:15:53;;;;;;;101.03;96.57;;;;;;;;;;5090331;28;20629;-68
2021/05/16 11:18:22;;;;;;;117.90;112.65;;;;;;;;;;5090351;28;20198;-67
2021/05/16 11:20:52;;;;;;;108.70;103.70;;;;;;;;;;5090253;28;20168;-68
2021/05/16 11:23:24;;;;;;;112.45;107.47;;;;;;;;;;5090195;28;20172;-67
2021/05/16 11:25:59;;;;;;;126.07;120.38;;;;;;;;;;5090151;28;20249;-67
2021/05/16 11:28:26;;;;;;;127.55;121.88;;;;;;;;;;5090066;28;20228;-68
2021/05/16 11:30:55;;;;;;;126.32;120.65;;;;;;;;;;5090036;28;20191;-68
2021/05/16 11:33:31;;;;;;;127.32;121.47;;;;;;;;;;5090084;28;20191;-68
2021/05/16 11:36:03;;;;;;;123.60;117.95;;;;;;;;;;5089951;28;20499;-68
2021/05/16 11:38:31;;;;;;;119.20;113.80;;;;;;;;;;5089975;28;20192;-72
2021/05/16 11:40:57;;;;;;;187.75;178.88;;;;;;;;;;5089857;28;20172;-72
2021/05/16 11:43:27;;;;;;;123.15;117.60;;;;;;;;;;5089887;28;20172;-70
2021/05/16 11:45:53;;;;;;;116.63;111.45;;;;;;;;;;5089554;28;20752;-73
2021/05/16 11:48:30;;;;;;;117.47;112.22;;;;;;;;;;5089826;28;20243;-69
2021/05/16 11:51:02;;;;;;;119.80;114.40;;;;;;;;;;5089697;28;20156;-69
2021/05/16 11:53:28;;;;;;;119.88;114.53;;;;;;;;;;5089654;28;20188;-69
2021/05/16 11:55:55;;;;;;;120.28;114.57;;;;;;;;;;5088299;28;20226;-70
2021/05/16 11:58:22;;;;;;;110.88;105.70;;;;;;;;;;5077865;28;20168;-67
2021/05/16 12:00:50;;;;;;;133.32;126.72;;;;;;;;;;5075983;28;20213;-67
2021/05/16 12:03:16;;;;;;;119.32;113.97;;;;;;;;;;5076113;28;20168;-68
2021/05/16 12:05:43;;;;;;;116.28;111.10;;;;;;;;;;5075956;28;20251;-68
2021/05/16 12:08:13;;;;;;;108.68;103.35;;;;;;;;;;5075862;28;20165;-68
2021/05/16 12:10:39;;;;;;;108.43;103.60;;;;;;;;;;5074607;28;20196;-68
2021/05/16 12:13:19;;;;;;;108.15;103.32;;;;;;;;;;5075836;28;20164;-68
2021/05/16 12:15:45;;;;;;;106.97;102.28;;;;;;;;;;5075889;28;20617;-68
2021/05/16 12:18:18;;;;;;;116.10;110.93;;;;;;;;;;5075250;28;20176;-68
2021/05/16 12:20:44;;;;;;;109.40;104.50;;;;;;;;;;5075398;28;20255;-68
2021/05/16 12:23:10;;;;;;;113.03;107.97;;;;;;;;;;5075636;28;20685;-68
2021/05/16 12:25:36;;;;;;;114.00;108.90;;;;;;;;;;5075506;28;20257;-68
2021/05/16 12:28:05;;;;;;;111.18;106.13;;;;;;;;;;5075527;28;20168;-68
2021/05/16 12:49:27;;;;;;;91.15;87.15;;;;;;;;;;5090992;27;20598;-68
2021/05/16 12:52:00;;;;;;;99.78;95.32;;;;;;;;;;5089651;28;20174;-68
2021/05/16 12:54:26;;;;;;;102.20;97.72;;;;;;;;;;5089569;28;20178;-68
2021/05/16 12:56:56;;;;;;;105.00;100.38;;;;;;;;;;5089649;28;20172;-68
2021/05/16 12:59:30;;;;;;;108.88;103.95;;;;;;;;;;5090726;28;20160;-68
2021/05/16 13:02:08;;;;;;;94.22;90.03;;;;;;;;;;5090164;28;20166;-68
2021/05/16 13:04:44;;;;;;;99.30;94.90;;;;;;;;;;5090385;28;20178;-68
2021/05/16 13:07:11;;;;;;;110.07;105.22;;;;;;;;;;5090505;28;20621;-68
2021/05/16 13:09:37;;;;;;;114.32;109.18;;;;;;;;;;5089756;28;20518;-68
2021/05/16 13:12:03;;;;;;;120.07;114.63;;;;;;;;;;5089989;28;20168;-68
2021/05/16 13:14:30;;;;;;;114.40;109.35;;;;;;;;;;5090267;28;20164;-68
2021/05/16 13:17:06;;;;;;;118.25;112.97;;;;;;;;;;5090158;28;20240;-68
2021/05/16 13:19:36;;;;;;;107.13;102.38;;;;;;;;;;5090177;28;20170;-68
2021/05/16 13:22:03;;;;;;;106.22;101.50;;;;;;;;;;5090146;28;20160;-68
2021/05/16 13:24:48;;;;;;;112.88;107.60;;;;;;;;;;5088929;28;20613;-68
2021/05/16 13:27:14;;;;;;;103.03;98.45;;;;;;;;;;5089901;28;20203;-68
2021/05/16 13:29:42;;;;;;;104.93;100.30;;;;;;;;;;5090019;28;20168;-68
2021/05/16 13:32:13;;;;;;;107.70;102.82;;;;;;;;;;5089948;28;20164;-68
2021/05/16 13:34:40;;;;;;;118.47;113.20;;;;;;;;;;5089868;28;20224;-68
2021/05/16 13:37:06;;;;;;;125.57;119.95;;;;;;;;;;5089804;28;20184;-68
2021/05/16 13:39:32;;;;;;;111.95;106.95;;;;;;;;;;5089784;28;20164;-68
2021/05/16 13:41:59;;;;;;;104.85;100.18;;;;;;;;;;5089742;28;20175;-68
2021/05/16 13:44:25;;;;;;;115.00;109.85;;;;;;;;;;5088373;28;20194;-68
2021/05/16 13:46:51;;;;;;;101.10;96.65;;;;;;;;;;5089642;28;20697;-68
2021/05/16 13:49:17;;;;;;;102.43;97.88;;;;;;;;;;5089450;28;20700;-68
2021/05/16 13:51:43;;;;;;;100.30;95.88;;;;;;;;;;5088273;28;20218;-68
2021/05/16 13:54:10;;;;;;;103.68;98.97;;;;;;;;;;5089467;28;20164;-68
2021/05/16 13:56:39;;;;;;;104.57;99.95;;;;;;;;;;5089517;28;20168;-68
2021/05/16 13:59:09;;;;;;;116.22;111.07;;;;;;;;;;5085178;28;20577;-68
2021/05/16 14:16:14;;;;;;;91.32;87.10;;;;;;;;;;5090800;28;20536;-68
2021/05/16 14:18:40;;;;;;;98.07;93.78;;;;;;;;;;5090710;28;20176;-68
2021/05/16 14:21:06;;;;;;;97.72;93.43;;;;;;;;;;5090746;28;20573;-68
2021/05/16 14:23:32;;;;;;;112.18;107.20;;;;;;;;;;5090583;28;20225;-68
2021/05/16 14:25:58;;;;;;;117.82;112.57;;;;;;;;;;5090625;28;20578;-68
2021/05/16 14:28:24;;;;;;;119.60;114.25;;;;;;;;;;5090519;28;20238;-68
2021/05/16 14:30:52;;;;;;;121.45;116.03;;;;;;;;;;5089209;28;20194;-68
2021/05/16 14:33:19;;;;;;;135.57;129.45;;;;;;;;;;5090477;28;20199;-68
2021/05/16 14:35:45;;;;;;;145.48;138.85;;;;;;;;;;5090356;28;20188;-68
2021/05/16 14:38:11;;;;;;;140.32;133.98;;;;;;;;;;5090252;28;20247;-68
2021/05/16 14:40:37;;;;;;;145.32;138.75;;;;;;;;;;5090344;28;20259;-68
2021/05/16 14:43:04;;;;;;;143.60;137.10;;;;;;;;;;5090293;28;20551;-68
2021/05/16 14:45:30;;;;;;;157.63;150.48;;;;;;;;;;5090279;28;20258;-68
2021/05/16 14:47:56;;;;;;;156.57;149.52;;;;;;;;;;5088905;28;20292;-68
2021/05/16 14:50:31;;;;;;;159.88;152.60;;;;;;;;;;5090044;28;20255;-68
2021/05/16 14:52:57;;;;;;;172.38;164.38;;;;;;;;;;5090049;28;20188;-68
2021/05/16 14:55:23;;;;;;;164.32;156.90;;;;;;;;;;5089917;28;20218;-68
2021/05/16 14:57:49;;;;;;;163.20;155.80;;;;;;;;;;5089982;28;20617;-68
2021/05/16 15:00:16;;;;;;;164.02;156.57;;;;;;;;;;5089858;28;20168;-68
2021/05/16 15:02:42;;;;;;;139.60;133.32;;;;;;;;;;5089793;28;20159;-68
2021/05/16 15:05:08;;;;;;;146.57;139.90;;;;;;;;;;5089755;28;20639;-68
2021/05/16 15:07:34;;;;;;;150.05;143.27;;;;;;;;;;5088421;28;20514;-68
2021/05/16 15:10:00;;;;;;;171.05;163.20;;;;;;;;;;5089708;28;20168;-68
2021/05/16 15:12:26;;;;;;;149.65;142.85;;;;;;;;;;5089722;28;20614;-68
2021/05/16 15:14:55;;;;;;;166.00;158.48;;;;;;;;;;5089271;28;20257;-69
2021/05/16 15:17:23;;;;;;;202.52;193.32;;;;;;;;;;5089615;28;20168;-68
2021/05/16 15:19:50;;;;;;;194.32;185.63;;;;;;;;;;5089489;28;20601;-69
2021/05/16 15:22:17;;;;;;;225.98;215.88;;;;;;;;;;5089591;28;20629;-69
2021/05/16 15:24:43;;;;;;;237.05;226.35;;;;;;;;;;5089382;28;20191;-69
2021/05/16 15:27:09;;;;;;;247.73;236.52;;;;;;;;;;5078453;28;20168;-69
2021/05/16 15:29:35;;;;;;;248.05;236.90;;;;;;;;;;5075912;28;20164;-69
2021/05/16 15:32:01;;;;;;;258.48;246.88;;;;;;;;;;5075921;28;20633;-69
2021/05/16 15:34:27;;;;;;;243.90;232.90;;;;;;;;;;5075990;28;20259;-69
2021/05/16 15:36:53;;;;;;;216.50;206.80;;;;;;;;;;5075938;28;20613;-69
2021/05/16 15:39:18;;;;;;;213.60;203.98;;;;;;;;;;5075864;28;20168;-68
2021/05/16 15:41:45;;;;;;;188.75;180.30;;;;;;;;;;5075782;28;20196;-69
2021/05/16 15:44:11;;;;;;;179.75;171.70;;;;;;;;;;5075668;28;20279;-68
2021/05/16 15:46:36;;;;;;;181.85;173.60;;;;;;;;;;5075622;28;20191;-68
2021/05/16 15:49:03;;;;;;;194.05;185.23;;;;;;;;;;5075657;28;20169;-68
2021/05/16 15:51:29;;;;;;;166.98;159.40;;;;;;;;;;5075592;28;20172;-68
2021/05/16 16:16:06;;;;;;;96.43;92.18;;;;;;;;;;5090835;27;20536;-68
2021/05/16 16:18:31;;;;;;;105.28;100.65;;;;;;;;;;5090816;28;20175;-68
2021/05/16 16:20:57;;;;;;;102.90;98.20;;;;;;;;;;5090719;28;20172;-68
2021/05/16 16:23:23;;;;;;;116.90;111.30;;;;;;;;;;5089423;28;20172;-68
2021/05/16 16:25:50;;;;;;;118.38;113.10;;;;;;;;;;5090755;28;20215;-68
2021/05/16 16:28:16;;;;;;;127.72;122.03;;;;;;;;;;5089363;28;20171;-69
2021/05/16 16:30:42;;;;;;;146.65;139.95;;;;;;;;;;5090556;28;20159;-69
2021/05/16 16:33:08;;;;;;;172.75;164.85;;;;;;;;;;5090578;28;20178;-68
2021/05/16 16:35:39;;;;;;;206.93;197.52;;;;;;;;;;5090510;28;20203;-68
2021/05/16 16:38:05;;;;;;;249.50;238.10;;;;;;;;;;5090511;28;20625;-69
2021/05/16 16:40:31;;;;;;;318.42;303.58;;;;;;;;;;5090390;28;20167;-69
2021/05/16 16:42:57;;;;;;;361.10;343.95;;;;;;;;;;5090374;28;20202;-69
2021/05/16 16:45:23;;;;;;;360.75;343.60;;;;;;;;;;5090385;28;20175;-69
2021/05/16 16:47:49;;;;;;;363.27;346.02;;;;;;;;;;5090301;28;20199;-69
2021/05/16 16:50:16;;;;;;;365.90;348.50;;;;;;;;;;5090247;28;20706;-69
2021/05/16 16:52:45;;;;;;;356.70;339.65;;;;;;;;;;5090134;28;20199;-69
2021/05/16 16:55:12;;;;;;;353.40;336.58;;;;;;;;;;5089711;28;20282;-69
2021/05/16 16:57:38;;;;;;;330.33;314.75;;;;;;;;;;5089875;28;20178;-69
2021/05/16 17:00:08;;;;;;;275.77;263.23;;;;;;;;;;5090075;28;20164;-69
2021/05/16 17:02:34;;;;;;;246.95;235.75;;;;;;;;;;5089972;28;20200;-69
